sensor_id;sensor_type;location;lat;lon;timestamp;temperature;humidity
50738;DHT22;36703;48.154;17.126;2024-03-08T00:01:09;9.20;53.50
50738;DHT22;36703;48.154;17.126;2024-03-08T00:05:11;9.10;54.20
50738;DHT22;36703;48.154;17.126;2024-03-08T00:09:13;9.10;54.30
50738;DHT22;36703;48.154;17.126;2024-03-08T00:13:15;9.10;54.60
50738;DHT22;36703;48.154;17.126;2024-03-08T00:17:16;9.10;54.70
50738;DHT22;36703;48.154;17.126;2024-03-08T00:21:18;9.00;54.90
50738;DHT22;36703;48.154;17.126;2024-03-08T00:25:19;9.10;54.80
50738;DHT22;36703;48.154;17.126;2024-03-08T00:29:21;9.40;55.10
50738;DHT22;36703;48.154;17.126;2024-03-08T00:33:23;9.00;55.10
50738;DHT22;36703;48.154;17.126;2024-03-08T00:37:25;9.40;55.90
50738;DHT22;36703;48.154;17.126;2024-03-08T00:41:26;9.00;55.10
50738;DHT22;36703;48.154;17.126;2024-03-08T00:45:28;9.70;55.60
50738;DHT22;36703;48.154;17.126;2024-03-08T00:49:29;9.00;55.20
50738;DHT22;36703;48.154;17.126;2024-03-08T00:53:30;9.00;54.50
50738;DHT22;36703;48.154;17.126;2024-03-08T00:57:32;9.00;54.50
50738;DHT22;36703;48.154;17.126;2024-03-08T01:01:34;9.60;56.20
50738;DHT22;36703;48.154;17.126;2024-03-08T01:05:35;8.90;56.50
50738;DHT22;36703;48.154;17.126;2024-03-08T01:09:36;9.00;56.90
50738;DHT22;36703;48.154;17.126;2024-03-08T01:13:38;9.00;55.10
50738;DHT22;36703;48.154;17.126;2024-03-08T01:17:39;9.10;55.00
50738;DHT22;36703;48.154;17.126;2024-03-08T01:21:41;9.00;56.80
50738;DHT22;36703;48.154;17.126;2024-03-08T01:25:42;9.00;56.40
50738;DHT22;36703;48.154;17.126;2024-03-08T01:29:45;9.10;56.40
50738;DHT22;36703;48.154;17.126;2024-03-08T01:33:46;9.10;56.80
50738;DHT22;36703;48.154;17.126;2024-03-08T01:37:47;9.00;56.90
50738;DHT22;36703;48.154;17.126;2024-03-08T01:41:50;9.00;55.40
50738;DHT22;36703;48.154;17.126;2024-03-08T01:45:52;9.00;55.40
50738;DHT22;36703;48.154;17.126;2024-03-08T01:49:54;9.00;55.80
50738;DHT22;36703;48.154;17.126;2024-03-08T01:53:55;9.10;55.30
50738;DHT22;36703;48.154;17.126;2024-03-08T01:57:57;9.10;55.70
50738;DHT22;36703;48.154;17.126;2024-03-08T02:02:01;9.10;55.80
50738;DHT22;36703;48.154;17.126;2024-03-08T02:06:04;9.00;56.00
50738;DHT22;36703;48.154;17.126;2024-03-08T02:10:06;9.10;56.00
50738;DHT22;36703;48.154;17.126;2024-03-08T02:14:08;8.90;56.20
50738;DHT22;36703;48.154;17.126;2024-03-08T02:18:10;8.90;56.40
50738;DHT22;36703;48.154;17.126;2024-03-08T02:22:11;9.00;56.50
50738;DHT22;36703;48.154;17.126;2024-03-08T02:26:13;9.10;56.40
50738;DHT22;36703;48.154;17.126;2024-03-08T02:30:14;9.00;56.30
50738;DHT22;36703;48.154;17.126;2024-03-08T02:34:15;9.00;56.30
50738;DHT22;36703;48.154;17.126;2024-03-08T02:38:17;9.10;56.20
50738;DHT22;36703;48.154;17.126;2024-03-08T02:42:20;9.10;56.20
50738;DHT22;36703;48.154;17.126;2024-03-08T02:46:21;9.00;56.60
50738;DHT22;36703;48.154;17.126;2024-03-08T02:50:22;9.00;56.90
50738;DHT22;36703;48.154;17.126;2024-03-08T02:54:24;9.00;55.90
50738;DHT22;36703;48.154;17.126;2024-03-08T02:58:25;9.00;56.10
50738;DHT22;36703;48.154;17.126;2024-03-08T03:02:26;9.00;56.10
50738;DHT22;36703;48.154;17.126;2024-03-08T03:06:29;9.00;56.00
50738;DHT22;36703;48.154;17.126;2024-03-08T03:10:30;9.00;56.00
50738;DHT22;36703;48.154;17.126;2024-03-08T03:14:32;9.10;57.30
50738;DHT22;36703;48.154;17.126;2024-03-08T03:18:34;9.10;57.40
50738;DHT22;36703;48.154;17.126;2024-03-08T03:22:36;8.90;57.80
50738;DHT22;36703;48.154;17.126;2024-03-08T03:26:38;8.90;57.00
50738;DHT22;36703;48.154;17.126;2024-03-08T03:30:40;8.90;57.00
50738;DHT22;36703;48.154;17.126;2024-03-08T03:34:41;8.80;56.40
50738;DHT22;36703;48.154;17.126;2024-03-08T03:38:44;8.90;57.30
50738;DHT22;36703;48.154;17.126;2024-03-08T03:42:46;8.90;56.50
50738;DHT22;36703;48.154;17.126;2024-03-08T03:46:47;8.80;56.40
50738;DHT22;36703;48.154;17.126;2024-03-08T03:50:49;8.80;56.60
50738;DHT22;36703;48.154;17.126;2024-03-08T03:54:51;8.80;56.60
50738;DHT22;36703;48.154;17.126;2024-03-08T03:58:52;8.80;56.60
50738;DHT22;36703;48.154;17.126;2024-03-08T04:02:54;8.80;56.80
50738;DHT22;36703;48.154;17.126;2024-03-08T04:06:55;10.20;58.10
50738;DHT22;36703;48.154;17.126;2024-03-08T04:10:57;8.60;57.40
50738;DHT22;36703;48.154;17.126;2024-03-08T04:14:59;8.70;57.50
50738;DHT22;36703;48.154;17.126;2024-03-08T04:19:01;8.50;57.60
50738;DHT22;36703;48.154;17.126;2024-03-08T04:23:05;8.60;57.80
50738;DHT22;36703;48.154;17.126;2024-03-08T04:27:06;8.60;57.80
50738;DHT22;36703;48.154;17.126;2024-03-08T04:31:08;10.00;58.40
50738;DHT22;36703;48.154;17.126;2024-03-08T04:35:09;8.60;58.20
50738;DHT22;36703;48.154;17.126;2024-03-08T04:39:10;9.00;57.80
50738;DHT22;36703;48.154;17.126;2024-03-08T04:43:14;8.70;57.50
50738;DHT22;36703;48.154;17.126;2024-03-08T04:47:15;8.70;57.50
50738;DHT22;36703;48.154;17.126;2024-03-08T04:51:18;8.70;57.40
50738;DHT22;36703;48.154;17.126;2024-03-08T04:55:20;8.80;57.40
50738;DHT22;36703;48.154;17.126;2024-03-08T04:59:22;8.70;57.60
50738;DHT22;36703;48.154;17.126;2024-03-08T05:03:23;9.20;57.80
50738;DHT22;36703;48.154;17.126;2024-03-08T05:07:27;8.70;57.60
50738;DHT22;36703;48.154;17.126;2024-03-08T05:11:29;8.70;57.60
50738;DHT22;36703;48.154;17.126;2024-03-08T05:15:30;8.80;57.50
50738;DHT22;36703;48.154;17.126;2024-03-08T05:19:36;8.70;57.50
50738;DHT22;36703;48.154;17.126;2024-03-08T05:23:38;8.70;57.50
50738;DHT22;36703;48.154;17.126;2024-03-08T05:27:39;8.70;57.40
50738;DHT22;36703;48.154;17.126;2024-03-08T05:31:48;8.70;57.50
50738;DHT22;36703;48.154;17.126;2024-03-08T05:35:50;8.70;57.50
50738;DHT22;36703;48.154;17.126;2024-03-08T05:39:53;8.70;57.60
50738;DHT22;36703;48.154;17.126;2024-03-08T05:43:55;8.70;57.50
50738;DHT22;36703;48.154;17.126;2024-03-08T05:47:56;8.70;57.50
50738;DHT22;36703;48.154;17.126;2024-03-08T05:51:58;8.70;57.60
50738;DHT22;36703;48.154;17.126;2024-03-08T05:56:01;9.10;57.80
50738;DHT22;36703;48.154;17.126;2024-03-08T06:00:03;8.70;57.70
50738;DHT22;36703;48.154;17.126;2024-03-08T06:04:13;8.70;57.70
50738;DHT22;36703;48.154;17.126;2024-03-08T06:08:15;8.60;57.80
50738;DHT22;36703;48.154;17.126;2024-03-08T06:12:17;8.70;58.00
50738;DHT22;36703;48.154;17.126;2024-03-08T06:16:19;8.70;58.00
50738;DHT22;36703;48.154;17.126;2024-03-08T06:20:21;8.70;58.00
50738;DHT22;36703;48.154;17.126;2024-03-08T06:24:27;8.70;57.50
50738;DHT22;36703;48.154;17.126;2024-03-08T06:28:28;8.70;57.50
50738;DHT22;36703;48.154;17.126;2024-03-08T06:32:36;8.60;58.50
50738;DHT22;36703;48.154;17.126;2024-03-08T06:36:38;9.30;58.90
50738;DHT22;36703;48.154;17.126;2024-03-08T06:40:39;8.50;58.40
50738;DHT22;36703;48.154;17.126;2024-03-08T06:44:41;8.70;60.10
50738;DHT22;36703;48.154;17.126;2024-03-08T06:48:49;8.40;61.00
50738;DHT22;36703;48.154;17.126;2024-03-08T06:52:51;8.40;60.90
50738;DHT22;36703;48.154;17.126;2024-03-08T06:56:54;8.50;60.40
50738;DHT22;36703;48.154;17.126;2024-03-08T07:00:55;8.60;58.80
50738;DHT22;36703;48.154;17.126;2024-03-08T07:05:01;8.60;59.70
50738;DHT22;36703;48.154;17.126;2024-03-08T07:09:05;8.50;59.40
50738;DHT22;36703;48.154;17.126;2024-03-08T07:13:06;8.60;60.40
50738;DHT22;36703;48.154;17.126;2024-03-08T07:17:07;8.50;61.50
50738;DHT22;36703;48.154;17.126;2024-03-08T07:21:12;8.50;59.80
50738;DHT22;36703;48.154;17.126;2024-03-08T07:25:14;8.80;60.30
50738;DHT22;36703;48.154;17.126;2024-03-08T07:29:22;8.70;60.00
50738;DHT22;36703;48.154;17.126;2024-03-08T07:33:23;8.70;59.50
50738;DHT22;36703;48.154;17.126;2024-03-08T07:37:25;8.70;58.90
50738;DHT22;36703;48.154;17.126;2024-03-08T07:41:26;8.90;61.40
50738;DHT22;36703;48.154;17.126;2024-03-08T07:45:28;8.80;60.00
50738;DHT22;36703;48.154;17.126;2024-03-08T07:49:31;8.70;60.10
50738;DHT22;36703;48.154;17.126;2024-03-08T07:53:33;8.70;60.80
50738;DHT22;36703;48.154;17.126;2024-03-08T07:57:34;8.70;58.90
50738;DHT22;36703;48.154;17.126;2024-03-08T08:01:35;8.70;59.00
50738;DHT22;36703;48.154;17.126;2024-03-08T08:05:37;8.80;59.40
50738;DHT22;36703;48.154;17.126;2024-03-08T08:09:40;8.80;59.30
50738;DHT22;36703;48.154;17.126;2024-03-08T08:13:43;10.10;60.60
50738;DHT22;36703;48.154;17.126;2024-03-08T08:17:45;8.80;59.40
50738;DHT22;36703;48.154;17.126;2024-03-08T08:21:46;8.80;59.50
50738;DHT22;36703;48.154;17.126;2024-03-08T08:25:47;8.80;59.60
50738;DHT22;36703;48.154;17.126;2024-03-08T08:29:50;8.80;59.70
50738;DHT22;36703;48.154;17.126;2024-03-08T08:33:52;8.90;59.70
50738;DHT22;36703;48.154;17.126;2024-03-08T08:37:59;10.50;62.20
50738;DHT22;36703;48.154;17.126;2024-03-08T08:42:00;8.90;61.80
50738;DHT22;36703;48.154;17.126;2024-03-08T08:46:01;9.00;61.70
50738;DHT22;36703;48.154;17.126;2024-03-08T08:50:03;9.00;59.60
50738;DHT22;36703;48.154;17.126;2024-03-08T08:54:05;9.10;60.20
50738;DHT22;36703;48.154;17.126;2024-03-08T08:58:10;8.10;60.30
50738;DHT22;36703;48.154;17.126;2024-03-08T09:02:12;8.90;60.80
50738;DHT22;36703;48.154;17.126;2024-03-08T09:06:14;8.90;59.90
50738;DHT22;36703;48.154;17.126;2024-03-08T09:10:16;9.00;60.40
50738;DHT22;36703;48.154;17.126;2024-03-08T09:14:17;9.10;60.40
50738;DHT22;36703;48.154;17.126;2024-03-08T09:18:19;9.10;60.60
50738;DHT22;36703;48.154;17.126;2024-03-08T09:22:23;10.40;61.00
50738;DHT22;36703;48.154;17.126;2024-03-08T09:26:25;9.10;60.20
50738;DHT22;36703;48.154;17.126;2024-03-08T09:30:26;9.20;60.10
50738;DHT22;36703;48.154;17.126;2024-03-08T09:34:27;9.30;60.00
50738;DHT22;36703;48.154;17.126;2024-03-08T09:38:29;9.40;59.80
50738;DHT22;36703;48.154;17.126;2024-03-08T09:42:30;9.40;59.70
50738;DHT22;36703;48.154;17.126;2024-03-08T09:46:32;9.40;59.60
50738;DHT22;36703;48.154;17.126;2024-03-08T09:50:34;9.50;59.60
50738;DHT22;36703;48.154;17.126;2024-03-08T09:54:36;9.50;59.60
50738;DHT22;36703;48.154;17.126;2024-03-08T09:58:37;9.50;59.60
50738;DHT22;36703;48.154;17.126;2024-03-08T10:02:59;9.40;59.60
50738;DHT22;36703;48.154;17.126;2024-03-08T10:07:01;9.50;59.70
50738;DHT22;36703;48.154;17.126;2024-03-08T10:11:03;9.60;59.50
50738;DHT22;36703;48.154;17.126;2024-03-08T10:15:07;9.80;59.30
50738;DHT22;36703;48.154;17.126;2024-03-08T10:19:09;9.80;59.10
50738;DHT22;36703;48.154;17.126;2024-03-08T10:23:13;10.00;59.00
50738;DHT22;36703;48.154;17.126;2024-03-08T10:27:18;10.00;58.90
50738;DHT22;36703;48.154;17.126;2024-03-08T10:31:19;10.10;58.80
50738;DHT22;36703;48.154;17.126;2024-03-08T10:35:21;10.00;58.70
50738;DHT22;36703;48.154;17.126;2024-03-08T10:39:24;10.00;58.80
50738;DHT22;36703;48.154;17.126;2024-03-08T10:43:26;10.00;58.70
50738;DHT22;36703;48.154;17.126;2024-03-08T10:47:32;9.90;58.80
50738;DHT22;36703;48.154;17.126;2024-03-08T10:51:36;9.90;58.80
50738;DHT22;36703;48.154;17.126;2024-03-08T10:55:39;10.00;58.70
50738;DHT22;36703;48.154;17.126;2024-03-08T10:59:41;10.10;58.70
50738;DHT22;36703;48.154;17.126;2024-03-08T11:03:44;10.20;58.50
50738;DHT22;36703;48.154;17.126;2024-03-08T11:07:46;10.30;58.50
50738;DHT22;36703;48.154;17.126;2024-03-08T11:11:48;10.30;58.30
50738;DHT22;36703;48.154;17.126;2024-03-08T11:15:50;10.40;58.30
50738;DHT22;36703;48.154;17.126;2024-03-08T11:19:51;10.40;58.20
50738;DHT22;36703;48.154;17.126;2024-03-08T11:32:22;10.50;58.10
50738;DHT22;36703;48.154;17.126;2024-03-08T11:36:24;10.60;57.90
50738;DHT22;36703;48.154;17.126;2024-03-08T11:40:25;10.80;57.70
50738;DHT22;36703;48.154;17.126;2024-03-08T11:44:27;10.80;57.60
50738;DHT22;36703;48.154;17.126;2024-03-08T11:48:28;10.60;57.60
50738;DHT22;36703;48.154;17.126;2024-03-08T11:52:30;10.40;57.40
50738;DHT22;36703;48.154;17.126;2024-03-08T11:56:32;10.30;57.50
50738;DHT22;36703;48.154;17.126;2024-03-08T12:00:33;10.50;57.50
50738;DHT22;36703;48.154;17.126;2024-03-08T12:04:39;10.60;57.20
50738;DHT22;36703;48.154;17.126;2024-03-08T12:08:45;10.60;57.10
50738;DHT22;36703;48.154;17.126;2024-03-08T12:12:53;10.70;57.00
50738;DHT22;36703;48.154;17.126;2024-03-08T12:16:55;10.70;56.80
50738;DHT22;36703;48.154;17.126;2024-03-08T12:21:06;10.80;56.70
50738;DHT22;36703;48.154;17.126;2024-03-08T12:25:31;10.80;56.60
50738;DHT22;36703;48.154;17.126;2024-03-08T12:29:37;10.80;56.40
50738;DHT22;36703;48.154;17.126;2024-03-08T12:33:54;10.80;56.30
50738;DHT22;36703;48.154;17.126;2024-03-08T12:37:58;10.80;56.30
50738;DHT22;36703;48.154;17.126;2024-03-08T12:42:00;10.80;56.20
50738;DHT22;36703;48.154;17.126;2024-03-08T12:46:02;10.80;56.00
50738;DHT22;36703;48.154;17.126;2024-03-08T12:50:06;10.70;55.80
50738;DHT22;36703;48.154;17.126;2024-03-08T12:54:09;10.70;55.90
50738;DHT22;36703;48.154;17.126;2024-03-08T12:58:11;10.80;55.90
50738;DHT22;36703;48.154;17.126;2024-03-08T13:02:12;10.80;55.70
50738;DHT22;36703;48.154;17.126;2024-03-08T13:06:13;11.10;55.70
50738;DHT22;36703;48.154;17.126;2024-03-08T13:10:15;10.80;55.60
50738;DHT22;36703;48.154;17.126;2024-03-08T13:14:17;10.80;55.40
50738;DHT22;36703;48.154;17.126;2024-03-08T13:18:18;10.90;55.40
50738;DHT22;36703;48.154;17.126;2024-03-08T13:22:20;10.90;55.30
50738;DHT22;36703;48.154;17.126;2024-03-08T13:26:23;10.90;55.30
50738;DHT22;36703;48.154;17.126;2024-03-08T13:30:26;10.90;55.20
50738;DHT22;36703;48.154;17.126;2024-03-08T13:34:28;10.70;55.20
50738;DHT22;36703;48.154;17.126;2024-03-08T13:38:30;10.60;55.30
50738;DHT22;36703;48.154;17.126;2024-03-08T13:42:33;10.50;55.30
50738;DHT22;36703;48.154;17.126;2024-03-08T13:46:34;10.40;55.30
50738;DHT22;36703;48.154;17.126;2024-03-08T13:50:38;10.40;55.30
50738;DHT22;36703;48.154;17.126;2024-03-08T13:54:40;10.40;55.40
50738;DHT22;36703;48.154;17.126;2024-03-08T13:58:42;10.40;55.40
50738;DHT22;36703;48.154;17.126;2024-03-08T14:02:45;10.50;55.30
50738;DHT22;36703;48.154;17.126;2024-03-08T14:06:46;10.60;55.10
50738;DHT22;36703;48.154;17.126;2024-03-08T14:10:47;10.80;54.90
50738;DHT22;36703;48.154;17.126;2024-03-08T14:14:51;11.00;54.70
50738;DHT22;36703;48.154;17.126;2024-03-08T14:18:53;10.90;54.60
50738;DHT22;36703;48.154;17.126;2024-03-08T14:22:54;10.90;54.70
50738;DHT22;36703;48.154;17.126;2024-03-08T14:26:56;11.00;54.70
50738;DHT22;36703;48.154;17.126;2024-03-08T14:30:59;11.10;54.60
50738;DHT22;36703;48.154;17.126;2024-03-08T14:35:04;11.10;54.50
50738;DHT22;36703;48.154;17.126;2024-03-08T14:39:06;11.10;54.40
50738;DHT22;36703;48.154;17.126;2024-03-08T14:43:08;11.10;54.40
50738;DHT22;36703;48.154;17.126;2024-03-08T14:47:09;11.10;54.40
50738;DHT22;36703;48.154;17.126;2024-03-08T14:51:12;11.10;54.30
50738;DHT22;36703;48.154;17.126;2024-03-08T14:55:15;11.10;54.30
50738;DHT22;36703;48.154;17.126;2024-03-08T14:59:22;11.10;54.30
50738;DHT22;36703;48.154;17.126;2024-03-08T15:03:24;11.10;54.30
50738;DHT22;36703;48.154;17.126;2024-03-08T15:07:27;11.00;54.30
50738;DHT22;36703;48.154;17.126;2024-03-08T15:11:31;11.00;54.30
50738;DHT22;36703;48.154;17.126;2024-03-08T15:15:33;11.00;54.30
50738;DHT22;36703;48.154;17.126;2024-03-08T15:19:34;11.00;54.30
50738;DHT22;36703;48.154;17.126;2024-03-08T15:23:36;10.90;54.10
50738;DHT22;36703;48.154;17.126;2024-03-08T15:27:37;10.90;54.10
50738;DHT22;36703;48.154;17.126;2024-03-08T15:31:41;10.80;54.10
50738;DHT22;36703;48.154;17.126;2024-03-08T15:35:44;10.90;54.10
50738;DHT22;36703;48.154;17.126;2024-03-08T15:39:49;10.90;54.00
50738;DHT22;36703;48.154;17.126;2024-03-08T15:43:51;11.00;53.70
50738;DHT22;36703;48.154;17.126;2024-03-08T15:47:52;10.90;53.50
50738;DHT22;36703;48.154;17.126;2024-03-08T15:51:54;10.90;53.40
50738;DHT22;36703;48.154;17.126;2024-03-08T15:55:56;10.90;53.30
50738;DHT22;36703;48.154;17.126;2024-03-08T15:59:59;10.90;53.10
50738;DHT22;36703;48.154;17.126;2024-03-08T16:04:01;10.80;53.00
50738;DHT22;36703;48.154;17.126;2024-03-08T16:08:03;10.80;53.00
50738;DHT22;36703;48.154;17.126;2024-03-08T16:12:04;10.80;52.90
50738;DHT22;36703;48.154;17.126;2024-03-08T16:16:06;10.70;52.90
50738;DHT22;36703;48.154;17.126;2024-03-08T16:20:08;10.70;52.90
50738;DHT22;36703;48.154;17.126;2024-03-08T16:24:12;10.70;52.90
50738;DHT22;36703;48.154;17.126;2024-03-08T16:28:14;10.60;53.00
50738;DHT22;36703;48.154;17.126;2024-03-08T16:32:15;10.60;53.10
50738;DHT22;36703;48.154;17.126;2024-03-08T16:36:22;10.50;53.20
50738;DHT22;36703;48.154;17.126;2024-03-08T16:40:24;10.50;53.50
50738;DHT22;36703;48.154;17.126;2024-03-08T16:44:25;10.60;53.60
50738;DHT22;36703;48.154;17.126;2024-03-08T16:48:28;10.60;53.60
50738;DHT22;36703;48.154;17.126;2024-03-08T16:52:31;10.60;53.60
50738;DHT22;36703;48.154;17.126;2024-03-08T16:56:36;10.50;53.90
50738;DHT22;36703;48.154;17.126;2024-03-08T17:00:39;10.40;54.10
50738;DHT22;36703;48.154;17.126;2024-03-08T17:04:41;10.40;54.60
50738;DHT22;36703;48.154;17.126;2024-03-08T17:08:42;10.40;54.80
50738;DHT22;36703;48.154;17.126;2024-03-08T17:12:47;10.30;55.10
50738;DHT22;36703;48.154;17.126;2024-03-08T17:16:53;10.40;55.30
50738;DHT22;36703;48.154;17.126;2024-03-08T17:20:54;10.40;55.30
50738;DHT22;36703;48.154;17.126;2024-03-08T17:24:57;10.40;55.50
50738;DHT22;36703;48.154;17.126;2024-03-08T17:29:00;10.30;55.60
50738;DHT22;36703;48.154;17.126;2024-03-08T17:33:04;10.40;55.80
50738;DHT22;36703;48.154;17.126;2024-03-08T17:37:09;10.30;55.90
50738;DHT22;36703;48.154;17.126;2024-03-08T17:41:12;10.30;56.00
50738;DHT22;36703;48.154;17.126;2024-03-08T17:45:13;10.30;56.10
50738;DHT22;36703;48.154;17.126;2024-03-08T17:49:16;10.30;56.20
50738;DHT22;36703;48.154;17.126;2024-03-08T17:53:18;10.40;56.20
50738;DHT22;36703;48.154;17.126;2024-03-08T17:57:19;10.80;56.50
50738;DHT22;36703;48.154;17.126;2024-03-08T18:01:20;10.30;56.30
50738;DHT22;36703;48.154;17.126;2024-03-08T18:05:22;10.40;56.40
50738;DHT22;36703;48.154;17.126;2024-03-08T18:09:26;10.30;56.50
50738;DHT22;36703;48.154;17.126;2024-03-08T18:13:27;10.30;56.60
50738;DHT22;36703;48.154;17.126;2024-03-08T18:17:29;10.20;56.70
50738;DHT22;36703;48.154;17.126;2024-03-08T18:21:31;10.40;57.00
50738;DHT22;36703;48.154;17.126;2024-03-08T18:25:35;10.10;57.00
50738;DHT22;36703;48.154;17.126;2024-03-08T18:29:38;10.20;57.20
50738;DHT22;36703;48.154;17.126;2024-03-08T18:33:40;10.10;57.10
50738;DHT22;36703;48.154;17.126;2024-03-08T18:37:45;10.20;57.40
50738;DHT22;36703;48.154;17.126;2024-03-08T18:41:51;10.00;57.40
50738;DHT22;36703;48.154;17.126;2024-03-08T18:45:52;10.00;57.50
50738;DHT22;36703;48.154;17.126;2024-03-08T18:49:54;10.10;57.60
50738;DHT22;36703;48.154;17.126;2024-03-08T18:53:55;10.10;57.60
50738;DHT22;36703;48.154;17.126;2024-03-08T18:57:57;10.10;57.70
50738;DHT22;36703;48.154;17.126;2024-03-08T19:01:58;10.40;58.00
50738;DHT22;36703;48.154;17.126;2024-03-08T19:06:00;10.00;57.40
50738;DHT22;36703;48.154;17.126;2024-03-08T19:10:05;10.00;58.00
50738;DHT22;36703;48.154;17.126;2024-03-08T19:14:08;10.00;58.20
50738;DHT22;36703;48.154;17.126;2024-03-08T19:18:09;10.00;58.30
50738;DHT22;36703;48.154;17.126;2024-03-08T19:22:12;9.90;58.50
50738;DHT22;36703;48.154;17.126;2024-03-08T19:26:14;9.90;58.60
50738;DHT22;36703;48.154;17.126;2024-03-08T19:30:16;9.90;58.70
50738;DHT22;36703;48.154;17.126;2024-03-08T19:34:18;9.90;59.00
50738;DHT22;36703;48.154;17.126;2024-03-08T19:38:25;9.80;59.00
50738;DHT22;36703;48.154;17.126;2024-03-08T19:42:31;9.80;59.10
50738;DHT22;36703;48.154;17.126;2024-03-08T19:46:33;9.80;59.80
50738;DHT22;36703;48.154;17.126;2024-03-08T19:50:41;9.80;59.30
50738;DHT22;36703;48.154;17.126;2024-03-08T19:54:43;9.80;59.50
50738;DHT22;36703;48.154;17.126;2024-03-08T19:58:46;9.80;59.60
50738;DHT22;36703;48.154;17.126;2024-03-08T20:02:48;9.80;59.70
50738;DHT22;36703;48.154;17.126;2024-03-08T20:06:50;9.90;59.80
50738;DHT22;36703;48.154;17.126;2024-03-08T20:10:52;9.70;59.30
50738;DHT22;36703;48.154;17.126;2024-03-08T20:14:53;9.70;60.00
50738;DHT22;36703;48.154;17.126;2024-03-08T20:18:55;9.70;60.10
50738;DHT22;36703;48.154;17.126;2024-03-08T20:23:02;9.70;60.10
50738;DHT22;36703;48.154;17.126;2024-03-08T20:27:04;9.70;60.10
50738;DHT22;36703;48.154;17.126;2024-03-08T20:31:06;9.70;60.30
50738;DHT22;36703;48.154;17.126;2024-03-08T20:35:07;9.70;60.40
50738;DHT22;36703;48.154;17.126;2024-03-08T20:39:11;9.70;60.50
50738;DHT22;36703;48.154;17.126;2024-03-08T20:43:15;9.70;60.60
50738;DHT22;36703;48.154;17.126;2024-03-08T20:47:19;9.70;60.60
50738;DHT22;36703;48.154;17.126;2024-03-08T20:51:22;9.70;60.60
50738;DHT22;36703;48.154;17.126;2024-03-08T20:55:25;9.70;60.60
50738;DHT22;36703;48.154;17.126;2024-03-08T20:59:28;9.70;60.70
50738;DHT22;36703;48.154;17.126;2024-03-08T21:03:30;9.70;60.80
50738;DHT22;36703;48.154;17.126;2024-03-08T21:07:32;9.70;61.10
50738;DHT22;36703;48.154;17.126;2024-03-08T21:11:36;9.70;61.20
50738;DHT22;36703;48.154;17.126;2024-03-08T21:15:38;9.70;61.30
50738;DHT22;36703;48.154;17.126;2024-03-08T21:19:40;9.60;61.30
50738;DHT22;36703;48.154;17.126;2024-03-08T21:23:45;9.70;61.30
50738;DHT22;36703;48.154;17.126;2024-03-08T21:27:47;9.70;61.20
50738;DHT22;36703;48.154;17.126;2024-03-08T21:31:48;9.70;61.30
50738;DHT22;36703;48.154;17.126;2024-03-08T21:35:49;9.60;61.40
50738;DHT22;36703;48.154;17.126;2024-03-08T21:39:51;9.60;61.60
50738;DHT22;36703;48.154;17.126;2024-03-08T21:43:53;9.60;61.70
50738;DHT22;36703;48.154;17.126;2024-03-08T21:47:55;9.60;61.70
50738;DHT22;36703;48.154;17.126;2024-03-08T21:52:00;9.60;61.90
50738;DHT22;36703;48.154;17.126;2024-03-08T21:56:05;9.50;61.90
50738;DHT22;36703;48.154;17.126;2024-03-08T22:00:07;9.50;62.10
50738;DHT22;36703;48.154;17.126;2024-03-08T22:04:18;6.50;60.50
50738;DHT22;36703;48.154;17.126;2024-03-08T22:08:21;9.50;62.20
50738;DHT22;36703;48.154;17.126;2024-03-08T22:12:22;9.50;62.20
50738;DHT22;36703;48.154;17.126;2024-03-08T22:16:23;9.50;62.20
50738;DHT22;36703;48.154;17.126;2024-03-08T22:20:25;9.50;62.30
50738;DHT22;36703;48.154;17.126;2024-03-08T22:24:32;9.50;62.30
50738;DHT22;36703;48.154;17.126;2024-03-08T22:28:34;9.50;62.40
50738;DHT22;36703;48.154;17.126;2024-03-08T22:32:36;9.40;62.50
50738;DHT22;36703;48.154;17.126;2024-03-08T22:36:37;9.30;62.50
50738;DHT22;36703;48.154;17.126;2024-03-08T22:40:39;9.40;62.60
50738;DHT22;36703;48.154;17.126;2024-03-08T22:44:40;9.40;62.50
50738;DHT22;36703;48.154;17.126;2024-03-08T22:48:41;10.30;63.10
50738;DHT22;36703;48.154;17.126;2024-03-08T22:52:43;9.40;62.60
50738;DHT22;36703;48.154;17.126;2024-03-08T22:56:49;9.40;62.60
50738;DHT22;36703;48.154;17.126;2024-03-08T23:00:50;9.20;63.20
50738;DHT22;36703;48.154;17.126;2024-03-08T23:05:02;9.10;63.80
50738;DHT22;36703;48.154;17.126;2024-03-08T23:09:07;9.00;64.20
50738;DHT22;36703;48.154;17.126;2024-03-08T23:13:14;9.10;64.40
50738;DHT22;36703;48.154;17.126;2024-03-08T23:17:17;9.10;65.00
50738;DHT22;36703;48.154;17.126;2024-03-08T23:21:19;9.10;64.20
50738;DHT22;36703;48.154;17.126;2024-03-08T23:25:21;9.10;64.10
50738;DHT22;36703;48.154;17.126;2024-03-08T23:29:28;9.10;64.00
50738;DHT22;36703;48.154;17.126;2024-03-08T23:33:30;9.10;64.00
50738;DHT22;36703;48.154;17.126;2024-03-08T23:37:31;9.40;64.00
50738;DHT22;36703;48.154;17.126;2024-03-08T23:41:33;9.20;63.70
50738;DHT22;36703;48.154;17.126;2024-03-08T23:45:35;9.20;63.60
50738;DHT22;36703;48.154;17.126;2024-03-08T23:49:37;9.20;63.40
50738;DHT22;36703;48.154;17.126;2024-03-08T23:53:39;9.10;63.50
50738;DHT22;36703;48.154;17.126;2024-03-08T23:57:45;9.00;63.50
